createdAt,value
2022-11-11T00:01:05.725Z,13.93
2022-11-11T00:03:33.146Z,15.00
2022-11-11T00:06:05.018Z,16.27
2022-11-11T00:08:31.794Z,19.77
2022-11-11T00:11:06.815Z,17.07
2022-11-11T00:13:35.023Z,15.87
2022-11-11T00:16:09.120Z,16.87
2022-11-11T00:19:08.462Z,16.07
2022-11-11T00:21:38.351Z,16.73
2022-11-11T00:24:24.702Z,20.07
2022-11-11T00:26:51.552Z,21.00
2022-11-11T00:29:18.313Z,21.37
2022-11-11T00:32:03.572Z,19.23
2022-11-11T00:34:30.283Z,19.63
2022-11-11T00:36:57.342Z,21.63
2022-11-11T00:39:24.044Z,19.60
2022-11-11T00:41:50.688Z,19.80
2022-11-11T00:44:17.447Z,17.27
2022-11-11T00:47:02.881Z,19.67
2022-11-11T00:49:48.523Z,19.27
2022-11-11T00:52:15.328Z,23.23
2022-11-11T00:54:42.006Z,24.33
2022-11-11T00:57:09.279Z,24.70
2022-11-11T00:59:36.088Z,20.87
2022-11-11T01:02:02.950Z,21.77
2022-11-11T01:04:29.863Z,20.63
2022-11-11T01:06:56.729Z,24.90
2022-11-11T01:09:24.030Z,23.97
2022-11-11T01:11:50.754Z,20.63
2022-11-11T01:14:17.584Z,20.07
2022-11-11T01:16:44.341Z,26.70
2022-11-11T01:19:11.034Z,22.23
2022-11-11T01:21:37.768Z,21.87
2022-11-11T01:24:04.822Z,25.77
2022-11-11T01:26:31.930Z,23.77
2022-11-11T01:28:59.542Z,21.30
2022-11-11T01:31:27.947Z,23.63
2022-11-11T01:33:55.705Z,18.53
2022-11-11T01:36:27.815Z,17.57
2022-11-11T01:38:59.917Z,18.63
2022-11-11T01:41:32.820Z,18.10
2022-11-11T01:44:16.676Z,18.73
2022-11-11T01:46:46.379Z,18.47
2022-11-11T01:49:38.289Z,17.80
2022-11-11T01:52:12.085Z,17.47
2022-11-11T01:54:42.408Z,15.97
2022-11-11T01:57:15.126Z,15.53
2022-11-11T01:59:46.088Z,18.43
2022-11-11T02:02:24.625Z,17.43
2022-11-11T02:05:10.861Z,15.87
2022-11-11T02:07:40.376Z,16.83
2022-11-11T02:10:09.370Z,21.80
2022-11-11T02:12:54.675Z,20.47
2022-11-11T02:15:21.419Z,16.90
2022-11-11T02:17:50.148Z,14.20
2022-11-11T02:20:24.705Z,21.83
2022-11-11T02:23:23.081Z,18.17
2022-11-11T02:25:52.127Z,17.77
2022-11-11T02:28:21.076Z,18.97
2022-11-11T02:30:48.116Z,16.93
2022-11-11T02:33:15.067Z,15.83
2022-11-11T02:35:47.197Z,16.43
2022-11-11T02:38:14.018Z,16.57
2022-11-11T02:41:04.187Z,15.17
2022-11-11T02:43:33.173Z,14.30
2022-11-11T02:46:01.932Z,14.20
2022-11-11T02:48:29.363Z,14.20
2022-11-11T02:50:56.292Z,14.43
2022-11-11T02:53:23.851Z,20.03
2022-11-11T02:55:50.790Z,14.87
2022-11-11T02:58:17.847Z,16.53
2022-11-11T03:00:45.064Z,13.87
2022-11-11T03:03:12.111Z,14.43
2022-11-11T03:05:38.934Z,13.67
2022-11-11T03:08:06.360Z,13.90
2022-11-11T03:10:33.256Z,16.67
2022-11-11T03:13:00.206Z,13.00
2022-11-11T03:15:27.132Z,14.63
2022-11-11T03:17:54.248Z,12.27
2022-11-11T03:20:39.848Z,13.10
2022-11-11T03:23:15.929Z,12.63
2022-11-11T03:25:48.090Z,10.87
2022-11-11T03:28:20.250Z,10.03
2022-11-11T03:30:50.457Z,9.70
2022-11-11T03:33:18.849Z,10.47
2022-11-11T03:35:48.801Z,10.17
2022-11-11T03:38:24.796Z,10.50
2022-11-11T03:40:57.312Z,11.07
2022-11-11T03:43:27.342Z,11.30
2022-11-11T03:45:56.955Z,13.80
2022-11-11T03:48:24.884Z,12.47
2022-11-11T03:50:52.213Z,13.83
2022-11-11T03:53:20.696Z,13.60
2022-11-11T03:55:48.385Z,10.43
2022-11-11T03:58:15.908Z,13.03
2022-11-11T04:00:43.453Z,15.53
2022-11-11T04:03:37.438Z,14.67
2022-11-11T04:06:23.996Z,13.87
2022-11-11T04:09:09.265Z,14.70
2022-11-11T04:11:41.870Z,12.87
2022-11-11T04:14:29.621Z,14.90
2022-11-11T04:16:57.105Z,13.00
2022-11-11T04:19:42.819Z,14.30
2022-11-11T04:22:10.271Z,15.00
2022-11-11T04:24:55.589Z,12.47
2022-11-11T04:27:22.375Z,13.47
2022-11-11T04:29:50.355Z,11.90
2022-11-11T04:32:38.005Z,12.80
2022-11-11T04:35:07.793Z,11.40
2022-11-11T04:37:37.028Z,11.63
2022-11-11T04:40:23.027Z,11.13
2022-11-11T04:42:52.891Z,15.13
2022-11-11T04:45:28.773Z,13.70
2022-11-11T04:48:07.107Z,10.97
2022-11-11T04:50:42.682Z,9.03
2022-11-11T04:53:14.213Z,8.43
2022-11-11T04:56:00.767Z,8.23
2022-11-11T04:58:32.112Z,7.30
2022-11-11T05:00:59.421Z,8.27
2022-11-11T05:03:26.476Z,8.17
2022-11-11T05:06:18.502Z,8.87
2022-11-11T05:08:56.697Z,8.33
2022-11-11T05:11:28.959Z,8.33
2022-11-11T05:14:15.949Z,7.90
2022-11-11T05:17:15.304Z,6.93
2022-11-11T05:20:00.945Z,6.97
2022-11-11T05:22:31.518Z,7.43
2022-11-11T05:25:17.332Z,9.07
2022-11-11T05:27:44.033Z,8.67
2022-11-11T05:30:12.928Z,8.47
2022-11-11T05:32:39.937Z,7.47
2022-11-11T05:35:07.715Z,7.03
2022-11-11T05:37:34.518Z,7.37
2022-11-11T05:40:01.320Z,6.13
2022-11-11T05:42:28.085Z,5.03
2022-11-11T05:44:54.744Z,5.80
2022-11-11T05:47:21.485Z,5.60
2022-11-11T05:49:48.252Z,5.20
2022-11-11T05:52:16.544Z,5.60
2022-11-11T05:54:43.689Z,5.87
2022-11-11T05:57:10.410Z,5.03
2022-11-11T05:59:37.187Z,5.57
2022-11-11T06:02:04.424Z,5.57
2022-11-11T06:04:31.717Z,6.40
2022-11-11T06:06:58.518Z,5.90
2022-11-11T06:09:25.327Z,6.13
2022-11-11T06:11:51.990Z,6.53
2022-11-11T06:14:18.929Z,7.00
2022-11-11T06:16:45.906Z,5.37
2022-11-11T06:19:12.545Z,6.53
2022-11-11T06:21:57.151Z,6.37
2022-11-11T06:24:26.659Z,5.37
2022-11-11T06:26:54.069Z,6.10
2022-11-11T06:29:20.710Z,5.67
2022-11-11T06:31:47.403Z,5.33
2022-11-11T06:34:14.195Z,5.17
2022-11-11T06:36:41.081Z,5.40
2022-11-11T06:39:07.805Z,4.50
2022-11-11T06:41:34.498Z,5.97
2022-11-11T06:44:01.218Z,4.73
2022-11-11T06:46:28.063Z,4.13
2022-11-11T06:48:54.780Z,4.43
2022-11-11T06:51:21.485Z,4.90
2022-11-11T06:53:48.184Z,5.83
2022-11-11T06:56:14.890Z,6.03
2022-11-11T06:58:41.704Z,5.40
2022-11-11T07:01:09.692Z,6.30
2022-11-11T07:03:36.977Z,5.07
2022-11-11T07:06:05.476Z,5.50
2022-11-11T07:08:33.039Z,5.87
2022-11-11T07:11:03.457Z,6.23
2022-11-11T07:13:34.027Z,5.27
2022-11-11T07:16:00.711Z,6.60
2022-11-11T07:18:27.856Z,5.90
2022-11-11T07:20:54.795Z,6.27
2022-11-11T07:23:21.497Z,5.50
2022-11-11T07:25:48.142Z,6.33
2022-11-11T07:28:14.770Z,6.47
2022-11-11T07:30:42.458Z,7.30
2022-11-11T07:33:09.243Z,8.20
2022-11-11T07:35:35.997Z,6.90
2022-11-11T07:38:02.842Z,4.73
2022-11-11T07:40:29.652Z,6.20
2022-11-11T07:42:56.583Z,6.07
2022-11-11T07:45:23.234Z,5.70
2022-11-11T07:47:49.912Z,5.40
2022-11-11T07:50:16.691Z,5.20
2022-11-11T07:52:49.066Z,5.73
2022-11-11T07:55:15.914Z,6.70
2022-11-11T07:57:42.617Z,6.30
2022-11-11T08:00:10.033Z,4.80
2022-11-11T08:02:36.718Z,4.50
2022-11-11T08:05:03.604Z,5.47
2022-11-11T08:07:30.324Z,3.87
2022-11-11T08:09:57.158Z,5.00
2022-11-11T08:12:42.489Z,5.00
2022-11-11T08:15:09.297Z,5.20
2022-11-11T08:17:39.872Z,5.90
2022-11-11T08:20:11.288Z,5.57
2022-11-11T08:22:42.248Z,6.37
2022-11-11T08:25:16.224Z,5.47
2022-11-11T08:27:43.076Z,7.27
2022-11-11T08:30:10.665Z,6.37
2022-11-11T08:32:37.343Z,5.83
2022-11-11T08:35:04.181Z,5.63
2022-11-11T08:37:30.840Z,7.00
2022-11-11T08:39:57.775Z,6.70
2022-11-11T08:42:24.770Z,7.17
2022-11-11T08:44:51.882Z,7.50
2022-11-11T08:47:20.571Z,7.00
2022-11-11T08:49:49.503Z,7.13
2022-11-11T08:52:16.397Z,7.83
2022-11-11T08:54:43.292Z,7.30
2022-11-11T08:57:09.953Z,6.93
2022-11-11T08:59:36.665Z,7.33
2022-11-11T09:02:03.339Z,8.03
2022-11-11T09:04:47.586Z,12.67
2022-11-11T09:07:16.234Z,10.43
2022-11-11T09:09:43.017Z,11.73
2022-11-11T09:12:09.848Z,9.97
2022-11-11T09:14:36.560Z,8.80
2022-11-11T09:17:03.232Z,8.90
2022-11-11T09:19:29.959Z,8.80
2022-11-11T09:21:56.708Z,8.43
2022-11-11T09:24:23.523Z,9.23
2022-11-11T09:26:50.805Z,8.47
2022-11-11T09:29:18.461Z,9.50
2022-11-11T09:31:46.569Z,8.93
2022-11-11T09:34:14.607Z,9.33
2022-11-11T09:36:42.437Z,9.50
2022-11-11T09:39:09.339Z,10.00
2022-11-11T09:41:56.136Z,10.90
2022-11-11T09:45:06.740Z,10.30
2022-11-11T09:47:42.743Z,12.50
2022-11-11T09:50:17.547Z,10.57
2022-11-11T09:53:04.872Z,11.57
2022-11-11T09:55:39.173Z,12.10
2022-11-11T09:58:16.571Z,11.77
2022-11-11T10:00:47.041Z,12.47
2022-11-11T10:03:18.553Z,11.47
2022-11-11T10:05:51.391Z,12.27
2022-11-11T10:08:29.443Z,12.40
2022-11-11T10:11:00.155Z,13.57
2022-11-11T10:13:35.459Z,14.63
2022-11-11T10:16:15.804Z,13.87
2022-11-11T10:19:21.569Z,14.17
2022-11-11T10:22:13.593Z,15.23
2022-11-11T10:24:46.981Z,16.67
2022-11-11T10:27:22.825Z,15.93
2022-11-11T10:29:50.689Z,16.30
2022-11-11T10:32:34.580Z,16.07
2022-11-11T10:35:26.685Z,17.03
2022-11-11T10:38:13.580Z,16.67
2022-11-11T10:40:46.769Z,17.33
2022-11-11T10:43:26.738Z,17.23
2022-11-11T10:46:08.844Z,16.57
2022-11-11T10:48:53.269Z,16.57
2022-11-11T10:51:21.285Z,16.30
2022-11-11T10:54:03.060Z,17.23
2022-11-11T10:56:49.031Z,17.27
2022-11-11T10:59:43.937Z,18.50
2022-11-11T11:02:21.792Z,19.50
2022-11-11T11:05:00.565Z,18.90
2022-11-11T11:07:40.504Z,18.87
2022-11-11T11:10:23.128Z,20.17
2022-11-11T11:13:04.512Z,19.63
2022-11-11T11:15:33.197Z,21.03
2022-11-11T11:18:10.814Z,20.07
2022-11-11T11:20:37.923Z,19.37
2022-11-11T11:23:05.122Z,19.60
2022-11-11T11:25:35.684Z,22.40
2022-11-11T11:28:14.817Z,22.00
2022-11-11T11:31:02.797Z,22.20
2022-11-11T11:33:50.834Z,20.27
2022-11-11T11:36:18.393Z,22.77
2022-11-11T11:38:50.471Z,21.77
2022-11-11T11:41:19.148Z,22.10
2022-11-11T11:43:46.034Z,19.50
2022-11-11T11:46:39.365Z,20.53
2022-11-11T11:49:28.813Z,20.47
2022-11-11T11:52:14.487Z,19.77
2022-11-11T11:54:51.558Z,20.77
2022-11-11T11:57:36.676Z,21.57
2022-11-11T12:00:13.372Z,20.40
2022-11-11T12:03:02.981Z,20.13
2022-11-11T12:05:50.562Z,19.93
2022-11-11T12:08:50.118Z,19.40
2022-11-11T12:11:40.493Z,20.80
2022-11-11T12:14:16.255Z,20.20
2022-11-11T12:17:29.972Z,20.07
2022-11-11T12:20:26.854Z,19.47
2022-11-11T12:23:19.246Z,20.17
2022-11-11T12:25:49.135Z,18.93
2022-11-11T12:28:30.199Z,17.20
2022-11-11T12:31:15.479Z,16.13
2022-11-11T12:34:00.356Z,16.33
2022-11-11T12:36:40.546Z,16.53
2022-11-11T12:39:27.503Z,15.13
2022-11-11T12:42:25.934Z,15.40
2022-11-11T12:45:17.920Z,14.73
2022-11-11T12:48:01.922Z,15.00
2022-11-11T12:50:42.090Z,15.03
2022-11-11T12:53:46.543Z,15.00
2022-11-11T12:56:34.460Z,15.37
2022-11-11T12:59:12.845Z,15.37
2022-11-11T13:01:54.556Z,14.60
2022-11-11T13:04:50.918Z,17.90
2022-11-11T13:07:39.495Z,15.27
2022-11-11T13:10:12.830Z,15.53
2022-11-11T13:12:51.645Z,15.33
2022-11-11T13:15:26.386Z,13.70
2022-11-11T13:17:53.567Z,14.03
2022-11-11T13:20:35.941Z,13.03
2022-11-11T13:23:02.656Z,13.97
2022-11-11T13:25:33.084Z,15.83
2022-11-11T13:28:23.121Z,15.63
2022-11-11T13:31:05.312Z,14.73
2022-11-11T13:33:42.841Z,14.27
2022-11-11T13:36:15.005Z,14.27
2022-11-11T13:38:57.309Z,14.23
2022-11-11T13:41:36.950Z,14.03
2022-11-11T13:44:06.912Z,15.07
2022-11-11T13:46:48.523Z,14.73
2022-11-11T13:49:26.944Z,14.93
2022-11-11T13:52:02.611Z,14.37
2022-11-11T13:54:38.061Z,14.80
2022-11-11T13:57:13.959Z,15.43
2022-11-11T13:59:44.038Z,14.20
2022-11-11T14:02:26.826Z,15.03
2022-11-11T14:05:02.604Z,14.47
2022-11-11T14:07:44.551Z,13.57
2022-11-11T14:10:34.213Z,13.90
2022-11-11T14:13:26.659Z,13.20
2022-11-11T14:15:54.368Z,14.60
2022-11-11T14:18:23.922Z,14.67
2022-11-11T14:20:53.519Z,13.90
2022-11-11T14:23:38.553Z,14.20
2022-11-11T14:26:09.927Z,14.20
2022-11-11T14:28:45.798Z,13.97
2022-11-11T14:31:12.710Z,14.67
2022-11-11T14:34:23.824Z,13.73
2022-11-11T14:37:02.487Z,15.50
2022-11-11T14:39:36.058Z,13.83
2022-11-11T14:42:03.240Z,14.13
2022-11-11T14:44:32.943Z,14.50
2022-11-11T14:47:02.604Z,14.80
2022-11-11T14:49:48.644Z,15.93
2022-11-11T14:52:48.231Z,14.87
2022-11-11T14:55:31.104Z,15.20
2022-11-11T14:58:18.689Z,14.53
2022-11-11T15:00:49.836Z,14.97
2022-11-11T15:03:22.517Z,15.17
2022-11-11T15:05:58.373Z,15.43
2022-11-11T15:08:37.728Z,14.73
2022-11-11T15:11:13.351Z,14.37
2022-11-11T15:13:46.208Z,15.60
2022-11-11T15:16:24.859Z,15.17
2022-11-11T15:19:17.979Z,15.33
2022-11-11T15:22:07.504Z,15.67
2022-11-11T15:24:42.566Z,13.93
2022-11-11T15:27:25.169Z,13.70
2022-11-11T15:30:06.999Z,11.43
2022-11-11T15:32:38.379Z,13.43
2022-11-11T15:35:35.649Z,12.40
2022-11-11T15:38:05.802Z,12.67
2022-11-11T15:40:55.645Z,12.47
2022-11-11T15:43:28.392Z,13.23
2022-11-11T15:45:58.811Z,13.63
2022-11-11T15:48:41.343Z,12.77
2022-11-11T15:51:27.769Z,13.57
2022-11-11T15:53:54.481Z,14.33
2022-11-11T15:56:33.246Z,13.77
2022-11-11T15:59:25.390Z,13.30
2022-11-11T16:01:52.894Z,14.73
2022-11-11T16:04:53.777Z,14.67
2022-11-11T16:07:31.688Z,12.93
2022-11-11T16:10:05.025Z,14.03
2022-11-11T16:12:45.188Z,13.00
2022-11-11T16:15:24.577Z,14.37
2022-11-11T16:17:56.085Z,13.63
2022-11-11T16:20:30.630Z,14.67
2022-11-11T16:23:02.913Z,12.70
2022-11-11T16:25:31.010Z,12.50
2022-11-11T16:27:58.124Z,12.90
2022-11-11T16:30:36.487Z,12.77
2022-11-11T16:33:03.782Z,15.10
2022-11-11T16:35:37.645Z,13.47
2022-11-11T16:38:05.542Z,12.90
2022-11-11T16:40:32.270Z,13.27
2022-11-11T16:43:20.824Z,13.30
2022-11-11T16:46:01.846Z,12.60
2022-11-11T16:48:36.639Z,12.97
2022-11-11T16:51:07.304Z,13.80
2022-11-11T16:53:38.760Z,13.60
2022-11-11T16:56:13.471Z,14.93
2022-11-11T16:58:44.039Z,14.43
2022-11-11T17:01:11.174Z,14.10
2022-11-11T17:03:53.779Z,15.30
2022-11-11T17:06:40.692Z,15.10
2022-11-11T17:09:27.370Z,13.40
2022-11-11T17:11:54.069Z,15.53
2022-11-11T17:14:20.806Z,15.30
2022-11-11T17:16:47.709Z,15.00
2022-11-11T17:19:14.516Z,14.70
2022-11-11T17:21:41.446Z,13.67
2022-11-11T17:24:08.178Z,15.27
2022-11-11T17:26:35.133Z,15.40
2022-11-11T17:29:01.927Z,15.97
2022-11-11T17:31:29.324Z,14.13
2022-11-11T17:33:56.107Z,15.27
2022-11-11T17:36:22.916Z,14.97
2022-11-11T17:38:49.693Z,12.30
2022-11-11T17:41:16.655Z,13.20
2022-11-11T17:43:43.449Z,14.37
2022-11-11T17:46:10.199Z,14.00
2022-11-11T17:48:36.929Z,13.53
2022-11-11T17:51:06.349Z,15.13
2022-11-11T17:53:34.845Z,14.87
2022-11-11T17:56:04.509Z,16.47
2022-11-11T17:58:31.236Z,15.70
2022-11-11T18:01:08.742Z,15.40
2022-11-11T18:03:35.558Z,16.00
2022-11-11T18:06:02.337Z,16.23
2022-11-11T18:08:30.662Z,18.60
2022-11-11T18:11:05.664Z,16.40
2022-11-11T18:13:32.541Z,16.70
2022-11-11T18:16:05.715Z,17.83
2022-11-11T18:18:33.533Z,15.47
2022-11-11T18:21:04.892Z,17.87
2022-11-11T18:23:33.637Z,21.17
2022-11-11T18:26:01.376Z,18.70
2022-11-11T18:28:36.765Z,19.47
2022-11-11T18:31:09.251Z,19.00
2022-11-11T18:33:36.910Z,18.83
2022-11-11T18:36:09.335Z,19.27
2022-11-11T18:38:37.210Z,20.33
2022-11-11T18:41:12.294Z,20.07
2022-11-11T18:43:44.204Z,19.70
2022-11-11T18:46:13.682Z,27.63
2022-11-11T18:48:41.069Z,21.07
2022-11-11T18:51:09.362Z,17.07
2022-11-11T18:53:37.692Z,19.47
2022-11-11T18:56:06.858Z,19.07
2022-11-11T18:58:35.212Z,15.27
2022-11-11T19:01:06.985Z,17.17
2022-11-11T19:03:34.157Z,17.23
2022-11-11T19:06:02.963Z,18.83
2022-11-11T19:08:31.196Z,13.57
2022-11-11T19:10:58.955Z,13.97
2022-11-11T19:13:26.620Z,12.27
2022-11-11T19:15:54.286Z,12.00
2022-11-11T19:18:22.348Z,10.83
2022-11-11T19:20:49.379Z,12.03
2022-11-11T19:23:16.651Z,8.60
2022-11-11T19:25:43.786Z,8.23
2022-11-11T19:28:11.231Z,10.93
2022-11-11T19:30:38.057Z,8.53
2022-11-11T19:33:04.955Z,19.07
2022-11-11T19:35:31.746Z,11.70
2022-11-11T19:37:58.709Z,10.27
2022-11-11T19:40:25.573Z,10.37
2022-11-11T19:42:52.590Z,9.87
2022-11-11T19:45:19.349Z,9.27
2022-11-11T19:47:49.368Z,10.53
2022-11-11T19:50:18.014Z,10.10
2022-11-11T19:52:44.915Z,14.57
2022-11-11T19:55:11.967Z,9.20
2022-11-11T19:57:38.912Z,10.17
2022-11-11T20:00:08.220Z,10.37
2022-11-11T20:02:35.130Z,9.30
2022-11-11T20:05:01.939Z,8.97
2022-11-11T20:07:28.702Z,9.20
2022-11-11T20:09:55.575Z,9.00
2022-11-11T20:12:22.471Z,11.57
2022-11-11T20:14:49.312Z,10.63
2022-11-11T20:17:16.211Z,9.43
2022-11-11T20:19:44.544Z,11.60
2022-11-11T20:22:12.005Z,11.33
2022-11-11T20:24:39.346Z,10.87
2022-11-11T20:27:07.049Z,11.37
2022-11-11T20:29:33.863Z,8.90
2022-11-11T20:32:00.727Z,8.67
2022-11-11T20:34:28.336Z,9.23
2022-11-11T20:36:55.116Z,9.10
2022-11-11T20:39:21.895Z,10.13
2022-11-11T20:41:48.692Z,11.33
2022-11-11T20:44:15.486Z,10.10
2022-11-11T20:46:42.579Z,9.67
2022-11-11T20:49:09.366Z,10.00
2022-11-11T20:51:36.146Z,13.17
2022-11-11T20:54:02.932Z,10.77
2022-11-11T20:56:29.830Z,9.00
2022-11-11T20:58:57.284Z,11.93
2022-11-11T21:01:26.416Z,12.30
2022-11-11T21:03:58.412Z,10.07
2022-11-11T21:06:26.522Z,11.10
2022-11-11T21:08:53.479Z,9.40
2022-11-11T21:11:22.227Z,7.87
2022-11-11T21:13:53.804Z,9.13
2022-11-11T21:16:26.536Z,9.60
2022-11-11T21:18:54.463Z,9.53
2022-11-11T21:21:33.446Z,8.60
2022-11-11T21:24:01.556Z,9.93
2022-11-11T21:26:29.557Z,8.20
2022-11-11T21:28:56.811Z,8.90
2022-11-11T21:31:29.061Z,8.70
2022-11-11T21:33:58.298Z,8.60
2022-11-11T21:36:27.257Z,8.87
2022-11-11T21:38:54.752Z,7.97
2022-11-11T21:41:26.142Z,9.13
2022-11-11T21:43:54.105Z,8.30
2022-11-11T21:46:23.846Z,9.73
2022-11-11T21:48:52.714Z,13.67
2022-11-11T21:51:25.903Z,14.27
2022-11-11T21:54:02.129Z,9.80
2022-11-11T21:56:31.740Z,9.13
2022-11-11T21:59:00.938Z,9.87
2022-11-11T22:01:34.094Z,10.13
2022-11-11T22:04:04.068Z,9.00
2022-11-11T22:06:30.981Z,10.00
2022-11-11T22:08:58.663Z,8.30
2022-11-11T22:11:27.934Z,9.00
2022-11-11T22:13:54.691Z,8.00
2022-11-11T22:16:23.752Z,6.90
2022-11-11T22:18:58.387Z,11.37
2022-11-11T22:21:27.386Z,9.07
2022-11-11T22:23:58.953Z,7.43
2022-11-11T22:26:27.528Z,7.77
2022-11-11T22:28:55.119Z,8.13
2022-11-11T22:31:29.804Z,8.23
2022-11-11T22:34:03.418Z,7.10
2022-11-11T22:36:31.641Z,9.27
2022-11-11T22:38:59.394Z,7.47
2022-11-11T22:41:28.959Z,7.80
2022-11-11T22:44:01.048Z,6.23
2022-11-11T22:46:29.553Z,6.53
2022-11-11T22:49:01.931Z,5.80
2022-11-11T22:51:30.449Z,5.90
2022-11-11T22:53:59.776Z,6.27
2022-11-11T22:56:27.624Z,6.23
2022-11-11T22:58:55.314Z,5.63
2022-11-11T23:01:29.513Z,6.37
2022-11-11T23:03:57.845Z,7.27
2022-11-11T23:06:27.895Z,8.87
2022-11-11T23:08:54.996Z,6.40
2022-11-11T23:11:24.929Z,5.93
2022-11-11T23:13:52.339Z,6.20
2022-11-11T23:16:21.124Z,6.80
2022-11-11T23:18:48.044Z,5.87
2022-11-11T23:21:17.582Z,6.37
2022-11-11T23:23:45.280Z,5.30
2022-11-11T23:26:21.124Z,5.73
2022-11-11T23:28:48.546Z,5.43
2022-11-11T23:31:17.599Z,4.80
2022-11-11T23:33:48.161Z,5.67
2022-11-11T23:36:18.275Z,6.27
2022-11-11T23:38:45.094Z,4.57
2022-11-11T23:41:13.175Z,5.40
2022-11-11T23:43:40.391Z,5.93
2022-11-11T23:46:07.759Z,5.70
2022-11-11T23:48:35.027Z,5.30
2022-11-11T23:51:02.328Z,5.03
2022-11-11T23:53:29.950Z,5.00
2022-11-11T23:55:57.585Z,5.67
2022-11-11T23:58:25.156Z,6.77
